createdAt,value
2019-05-25T00:04:31.196Z,40.95
2019-05-25T00:09:35.378Z,41.34
2019-05-25T00:14:39.574Z,41.60
2019-05-25T00:19:43.986Z,41.75
2019-05-25T00:24:48.202Z,41.87
2019-05-25T00:29:52.431Z,42.09
2019-05-25T00:34:56.627Z,43.12
2019-05-25T00:40:00.838Z,43.61
2019-05-25T00:45:06.069Z,43.94
2019-05-25T00:50:10.787Z,44.03
2019-05-25T00:55:15.183Z,43.84
2019-05-25T01:00:19.477Z,44.68
2019-05-25T01:05:23.749Z,45.30
2019-05-25T01:10:27.947Z,45.93
2019-05-25T01:15:32.152Z,46.26
2019-05-25T01:20:36.344Z,45.98
2019-05-25T01:25:40.551Z,46.07
2019-05-25T01:30:44.750Z,46.36
2019-05-25T01:35:48.953Z,47.70
2019-05-25T01:40:53.162Z,48.36
2019-05-25T01:45:57.389Z,48.98
2019-05-25T01:51:01.598Z,50.02
2019-05-25T01:56:05.807Z,51.51
2019-05-25T02:01:09.998Z,51.42
2019-05-25T02:06:14.214Z,51.72
2019-05-25T02:11:20.014Z,52.87
2019-05-25T02:16:24.216Z,53.89
2019-05-25T02:21:28.406Z,55.75
2019-05-25T02:26:32.611Z,56.74
2019-05-25T02:31:36.845Z,57.12
2019-05-25T02:36:41.042Z,57.24
2019-05-25T02:41:45.285Z,58.04
2019-05-25T02:46:49.466Z,58.66
2019-05-25T02:51:53.666Z,58.82
2019-05-25T02:56:57.854Z,58.65
2019-05-25T03:02:02.053Z,57.68
2019-05-25T03:07:06.366Z,60.36
2019-05-25T03:12:10.649Z,60.48
2019-05-25T03:17:14.844Z,60.43
2019-05-25T03:22:19.047Z,61.84
2019-05-25T03:27:23.234Z,62.21
2019-05-25T03:32:27.446Z,62.56
2019-05-25T03:37:31.637Z,63.59
2019-05-25T03:42:35.985Z,63.79
2019-05-25T03:47:40.225Z,64.38
2019-05-25T03:52:44.421Z,63.89
2019-05-25T03:57:48.611Z,64.84
2019-05-25T04:02:52.841Z,65.24
2019-05-25T04:07:57.037Z,65.72
2019-05-25T04:13:01.254Z,65.86
2019-05-25T04:18:05.526Z,66.49
2019-05-25T04:23:09.715Z,66.18
2019-05-25T04:28:13.909Z,64.88
2019-05-25T04:33:18.108Z,64.92
2019-05-25T04:38:22.332Z,65.76
2019-05-25T04:43:26.580Z,65.04
2019-05-25T04:48:30.759Z,65.38
2019-05-25T04:53:34.955Z,64.44
2019-05-25T04:58:39.136Z,64.76
2019-05-25T05:03:43.324Z,63.72
2019-05-25T05:08:47.528Z,63.28
2019-05-25T05:13:51.733Z,62.73
2019-05-25T05:18:55.913Z,63.59
2019-05-25T05:24:00.106Z,63.14
2019-05-25T05:29:05.510Z,62.39
2019-05-25T05:34:09.817Z,62.11
2019-05-25T05:39:14.520Z,63.09
2019-05-25T05:44:22.151Z,62.66
2019-05-25T05:49:27.715Z,61.86
2019-05-25T05:54:32.965Z,61.87
2019-05-25T05:59:37.155Z,62.45
2019-05-25T06:04:41.370Z,60.78
2019-05-25T06:09:45.559Z,60.37
2019-05-25T06:14:49.774Z,59.19
2019-05-25T06:19:53.966Z,59.04
2019-05-25T06:24:58.156Z,59.18
2019-05-25T06:30:02.362Z,58.40
2019-05-25T06:35:07.261Z,57.33
2019-05-25T06:40:11.682Z,58.06
2019-05-25T06:45:16.012Z,57.70
2019-05-25T06:50:20.241Z,55.71
2019-05-25T06:55:24.431Z,55.58
2019-05-25T07:00:28.643Z,55.46
2019-05-25T07:05:32.831Z,55.18
2019-05-25T07:10:37.025Z,55.73
2019-05-25T07:15:41.211Z,55.76
2019-05-25T07:20:45.394Z,55.61
2019-05-25T07:25:49.595Z,54.81
2019-05-25T07:30:53.982Z,55.92
2019-05-25T07:35:58.182Z,54.54
2019-05-25T07:41:02.466Z,55.43
2019-05-25T07:46:06.888Z,54.07
2019-05-25T07:51:11.109Z,54.50
2019-05-25T07:56:15.331Z,55.22
2019-05-25T08:01:19.532Z,55.66
2019-05-25T08:06:23.902Z,56.17
2019-05-25T08:11:28.127Z,55.39
2019-05-25T08:16:32.350Z,55.11
2019-05-25T08:21:36.554Z,56.53
2019-05-25T08:26:40.753Z,56.38
2019-05-25T08:31:44.950Z,55.60
2019-05-25T08:36:49.142Z,56.58
2019-05-25T08:41:53.409Z,57.22
2019-05-25T08:46:57.625Z,57.66
2019-05-25T08:52:04.195Z,59.01
2019-05-25T08:57:07.795Z,59.12
2019-05-25T09:02:12.012Z,58.05
2019-05-25T09:07:16.217Z,59.43
2019-05-25T09:12:20.463Z,58.92
2019-05-25T09:17:24.670Z,58.07
2019-05-25T09:22:28.898Z,56.92
2019-05-25T09:27:33.087Z,57.46
2019-05-25T09:32:37.390Z,56.73
2019-05-25T09:37:41.613Z,56.92
2019-05-25T09:42:45.949Z,56.59
2019-05-25T09:47:50.253Z,56.71
2019-05-25T09:52:54.468Z,57.58
2019-05-25T09:57:58.669Z,57.48
2019-05-25T10:03:02.991Z,57.42
2019-05-25T10:08:07.304Z,57.11
2019-05-25T10:13:11.500Z,56.33
2019-05-25T10:18:15.804Z,55.73
2019-05-25T10:23:20.014Z,54.38
2019-05-25T10:28:24.204Z,53.57
2019-05-25T10:33:28.472Z,51.57
2019-05-25T10:38:32.665Z,49.93
2019-05-25T10:43:36.882Z,50.15
2019-05-25T10:48:41.142Z,49.41
2019-05-25T10:53:45.369Z,50.35
2019-05-25T10:58:49.578Z,49.41
2019-05-25T11:03:53.795Z,48.55
2019-05-25T11:08:58.015Z,48.58
2019-05-25T11:14:02.259Z,50.30
2019-05-25T11:19:06.538Z,49.41
2019-05-25T11:24:10.704Z,48.68
2019-05-25T11:29:14.927Z,47.96
2019-05-25T11:34:19.152Z,47.77
2019-05-25T11:39:23.346Z,49.35
2019-05-25T11:44:27.559Z,49.28
2019-05-25T11:49:31.813Z,48.91
2019-05-25T11:54:35.980Z,47.60
2019-05-25T11:59:40.173Z,48.92
2019-05-25T12:04:44.384Z,49.01
2019-05-25T12:09:48.630Z,48.27
2019-05-25T12:14:52.847Z,48.22
2019-05-25T12:19:57.081Z,48.39
2019-05-25T12:25:01.300Z,48.33
2019-05-25T12:30:06.831Z,47.99
2019-05-25T12:35:11.427Z,47.79
2019-05-25T12:40:15.858Z,48.43
2019-05-25T12:45:20.306Z,48.58
2019-05-25T12:50:24.645Z,49.13
2019-05-25T12:55:28.832Z,50.34
2019-05-25T13:00:33.054Z,51.51
2019-05-25T13:05:37.267Z,50.91
2019-05-25T13:10:41.478Z,49.60
2019-05-25T13:15:45.727Z,45.72
2019-05-25T13:20:49.929Z,46.25
2019-05-25T13:25:54.162Z,49.24
2019-05-25T13:31:10.760Z,48.81
2019-05-25T13:36:04.297Z,48.54
2019-05-25T13:41:08.499Z,50.03
2019-05-25T13:46:12.730Z,48.62
2019-05-25T13:51:16.933Z,47.02
2019-05-25T13:56:21.170Z,47.27
2019-05-25T14:01:28.239Z,48.62
2019-05-25T14:06:31.293Z,48.31
2019-05-25T14:11:35.490Z,48.32
2019-05-25T14:16:39.724Z,48.05
2019-05-25T14:21:43.938Z,47.61
2019-05-25T14:26:48.160Z,47.88
2019-05-25T14:31:52.372Z,47.82
2019-05-25T14:36:56.584Z,48.27
2019-05-25T14:42:00.800Z,48.47
2019-05-25T14:47:05.184Z,48.96
2019-05-25T14:52:09.379Z,49.98
2019-05-25T14:57:13.587Z,48.94
2019-05-25T15:02:17.787Z,48.84
2019-05-25T15:07:21.998Z,48.90
2019-05-25T15:12:26.228Z,47.64
2019-05-25T15:17:30.453Z,48.33
2019-05-25T15:22:34.670Z,48.78
2019-05-25T15:27:38.931Z,48.45
2019-05-25T15:32:43.132Z,48.44
2019-05-25T15:37:47.375Z,49.33
2019-05-25T15:42:51.582Z,46.80
2019-05-25T15:47:55.832Z,44.67
2019-05-25T15:53:00.032Z,46.96
2019-05-25T15:58:04.428Z,48.11
2019-05-25T16:03:08.749Z,48.46
2019-05-25T16:08:12.950Z,48.30
2019-05-25T16:13:17.375Z,47.43
2019-05-25T16:18:21.583Z,46.14
2019-05-25T16:23:25.812Z,47.29
2019-05-25T16:28:30.043Z,46.82
2019-05-25T16:33:34.229Z,47.59
2019-05-25T16:38:38.499Z,47.30
2019-05-25T16:43:42.795Z,48.76
2019-05-25T16:48:46.991Z,48.96
2019-05-25T16:53:51.246Z,49.73
2019-05-25T16:58:55.448Z,48.99
2019-05-25T17:03:59.639Z,49.91
2019-05-25T17:09:04.836Z,50.15
2019-05-25T17:14:09.127Z,49.03
2019-05-25T17:19:13.348Z,49.16
2019-05-25T17:24:17.583Z,48.89
2019-05-25T17:29:21.808Z,48.71
2019-05-25T17:34:26.018Z,48.47
2019-05-25T17:39:30.230Z,48.85
2019-05-25T17:44:34.427Z,49.09
2019-05-25T17:49:38.637Z,48.08
2019-05-25T17:54:42.849Z,48.15
2019-05-25T17:59:47.042Z,47.38
2019-05-25T18:04:51.252Z,47.45
2019-05-25T18:09:55.468Z,46.80
2019-05-25T18:14:59.678Z,46.63
2019-05-25T18:20:04.676Z,46.78
2019-05-25T18:25:08.935Z,47.25
2019-05-25T18:30:13.668Z,46.82
2019-05-25T18:35:17.907Z,47.85
2019-05-25T18:40:22.460Z,48.18
2019-05-25T18:45:26.705Z,47.57
2019-05-25T18:50:30.963Z,48.00
2019-05-25T18:55:35.288Z,48.07
2019-05-25T19:00:39.514Z,48.42
2019-05-25T19:05:43.744Z,48.85
2019-05-25T19:10:47.940Z,49.50
2019-05-25T19:15:52.953Z,49.67
2019-05-25T19:20:57.165Z,49.73
2019-05-25T19:26:01.455Z,50.12
2019-05-25T19:31:05.842Z,49.69
2019-05-25T19:36:10.061Z,50.54
2019-05-25T19:41:14.266Z,50.58
2019-05-25T19:46:18.488Z,51.11
2019-05-25T19:51:22.722Z,51.49
2019-05-25T19:56:26.918Z,51.75
2019-05-25T20:01:31.149Z,51.95
2019-05-25T20:06:35.356Z,52.58
2019-05-25T20:11:39.589Z,53.32
2019-05-25T20:16:43.783Z,53.41
2019-05-25T20:21:48.014Z,54.08
2019-05-25T20:26:52.274Z,54.20
2019-05-25T20:31:56.494Z,54.57
2019-05-25T20:37:00.726Z,54.54
2019-05-25T20:42:05.026Z,55.13
2019-05-25T20:47:09.234Z,55.65
2019-05-25T20:52:13.460Z,56.14
2019-05-25T20:57:17.678Z,56.16
2019-05-25T21:02:21.901Z,56.62
2019-05-25T21:07:26.122Z,56.62
2019-05-25T21:12:30.385Z,56.71
2019-05-25T21:17:34.547Z,56.94
2019-05-25T21:22:38.731Z,57.31
2019-05-25T21:27:42.971Z,57.37
2019-05-25T21:32:47.203Z,57.88
2019-05-25T21:37:51.435Z,57.82
2019-05-25T21:42:55.657Z,58.18
2019-05-25T21:47:59.927Z,58.20
2019-05-25T21:53:04.268Z,58.51
2019-05-25T21:58:08.474Z,58.87
2019-05-25T22:03:12.829Z,58.91
2019-05-25T22:08:17.049Z,59.51
2019-05-25T22:13:28.352Z,59.27
2019-05-25T22:18:27.216Z,59.52
2019-05-25T22:23:31.458Z,59.87
2019-05-25T22:28:44.297Z,59.75
2019-05-25T22:33:41.572Z,59.87
2019-05-25T22:38:45.781Z,60.31
2019-05-25T22:43:49.990Z,60.28
2019-05-25T22:48:54.207Z,60.40
2019-05-25T22:53:58.369Z,60.55
2019-05-25T22:59:02.625Z,60.63
2019-05-25T23:04:06.838Z,60.92
2019-05-25T23:09:11.029Z,60.83
2019-05-25T23:14:15.228Z,60.87
2019-05-25T23:19:19.485Z,60.64
2019-05-25T23:24:23.662Z,60.84
2019-05-25T23:29:27.855Z,60.99
2019-05-25T23:34:32.043Z,60.98
2019-05-25T23:39:36.265Z,61.23
2019-05-25T23:44:40.470Z,61.14
2019-05-25T23:49:44.667Z,61.32
2019-05-25T23:54:48.863Z,61.16
2019-05-25T23:59:53.067Z,61.33
